Meteo Giornale » Osservazioni meteo Italia » Firenze-Peretola

ore: 11:50 - Osservazioni Meteo Firenze-Peretola
Lat. 43° 48' N Lon. 11° 12' E Alt. 40 metri s.l.m.

sereno Europe/Rome

18 °C

Sereno

Temp. 24 Ore

5 °C

24 °C

Nord

5.5 Km/h

Dew point 8 °C

Umidità 51 %

Visibilità  10 Km

Il sole sorge alle ore 06:57

Il sole tramonta alle ore 19:41

Data e Ora Cielo e Fenomeni T °C DP °C Um. % Pres. hPa Vis. km Vento km/h
Oggi h: 11:50 sereno Sereno 18 8 51 1025 10 N 5.5
Oggi h: 11:20 sereno Sereno 16 8 58 1026 10 N 3.7
Oggi h: 10:50 sereno Sereno 15 7 58 1026 10 N 3.7
Oggi h: 10:20 sereno Sereno 14 6 58 1026 10 N 1.8
Oggi h: 09:50 sereno Sereno 13 6 62 1026 10 N 0
Oggi h: 09:20 sereno Sereno 11 6 71 1026 10 N 1.8
Oggi h: 08:50 sereno Sereno 11 6 71 1026 10 N 0
Oggi h: 08:20 sereno Sereno 9 5 75 1026 10 N 0
Oggi h: 07:50 sereno Sereno 6 4 86 1025 10 N 1.8
Oggi h: 07:20 sereno Sereno 6 4 86 1025 10 N 1.8
Oggi h: 06:50 sereno Sereno 6 4 86 1025 10 N 1.8
Oggi h: 06:20 sereno Sereno 6 3 81 1025 10 N 0
Oggi h: 05:50 sereno Sereno 5 3 86 1025 10 N 0
Oggi h: 05:20 sereno Sereno 6 3 81 1024 10 N 0
Oggi h: 04:50 sereno Sereno 6 3 81 1024 10 N 3.7
Oggi h: 04:20 sereno Sereno 7 3 75 1024 10 N 5.5
Oggi h: 03:50 sereno Sereno 7 3 75 1024 10 N 1.8
Oggi h: 03:20 sereno Sereno 7 3 75 1024 10 N 3.7
Oggi h: 02:50 sereno Sereno 7 2 70 1024 10 N 3.7
Oggi h: 02:20 sereno Sereno 8 3 70 1024 10 E/NE 7.4
Oggi h: 01:50 sereno Sereno 7 3 75 1024 10 N 5.5
Oggi h: 01:20 sereno Sereno 7 3 75 1024 10 N 5.5
Oggi h: 00:50 sereno Sereno 9 3 66 1024 10 N 0
Oggi h: 00:20 sereno Sereno 9 3 66 1024 10 N 3.7
Ieri h: 23:50 sereno Sereno 10 4 66 1023 10 N 1.8
Ieri h: 23:20 sereno Sereno 11 3 57 1023 10 N 1.8
Ieri h: 22:50 sereno Sereno 12 4 57 1023 10 N 1.8
Ieri h: 22:20 sereno Sereno 10 3 61 1023 10 N 1.8
Ieri h: 21:50 sereno Sereno 12 3 54 1023 10 N 0
Ieri h: 21:20 sereno Sereno 15 3 44 1022 10 N 3.7
Ieri h: 20:50 sereno Sereno 18 3 36 1022 10 S/SO 9.3
Ieri h: 20:20 sereno Sereno 19 3 34 1021 10 N 7.4
Ieri h: 19:50 sereno Sereno 19 0 27 1021 10 NO 11.1
Ieri h: 19:20 sereno Sereno 21 0 24 1021 10 N/NO 7.4
Ieri h: 18:50 sereno Sereno 22 1 24 1021 10 N/NE 11.1
Ieri h: 18:20 sereno Sereno 23 0 21 1020 10 N 13
Ieri h: 17:50 sereno Sereno 23 -0 21 1020 10 N/NE 14.8
Ieri h: 17:20 sereno Sereno 24 2 23 1020 10 N 11.1
Ieri h: 16:50 sereno Sereno 24 0 20 1020 10 N/NE 16.7
Ieri h: 16:20 sereno Sereno 24 2 23 1021 10 N 14.8
Ieri h: 15:50 sereno Sereno 24 1 22 1021 10 N/NE 13
Ieri h: 15:20 sereno Sereno 24 1 22 1021 10 N 13
Ieri h: 14:50 sereno Sereno 23 2 25 1022 10 N 5.5
Ieri h: 14:20 sereno Sereno 22 6 35 1022 10 N 5.5
Ieri h: 13:50 sereno Sereno 21 6 37 1023 10 N 5.5
Ieri h: 13:20 sereno Sereno 20 4 34 1023 10 N 5.5
Ieri h: 12:50 sereno Sereno 18 4 39 1024 10 O/NO 7.4